sensor_id;sensor_type;location;lat;lon;timestamp;pressure;altitude;pressure_sealevel;temperature;humidity
15646;BME280;7922;43.622;1.476;2023-02-10T00:01:27;102152.38;;;0.46;89.06
15646;BME280;7922;43.622;1.476;2023-02-10T00:03:53;102087.50;;;0.03;88.85
15646;BME280;7922;43.622;1.476;2023-02-10T00:06:20;102088.09;;;-0.04;88.81
15646;BME280;7922;43.622;1.476;2023-02-10T00:08:47;102054.34;;;-0.27;89.59
15646;BME280;7922;43.622;1.476;2023-02-10T00:11:13;102005.41;;;-0.61;89.55
15646;BME280;7922;43.622;1.476;2023-02-10T00:13:39;102157.44;;;0.16;89.19
15646;BME280;7922;43.622;1.476;2023-02-10T00:16:06;102167.59;;;0.33;88.82
15646;BME280;7922;43.622;1.476;2023-02-10T00:18:32;102087.69;;;-0.16;88.95
15646;BME280;7922;43.622;1.476;2023-02-10T00:21:07;102208.47;;;0.59;88.29
15646;BME280;7922;43.622;1.476;2023-02-10T00:23:34;102204.66;;;0.50;88.64
15646;BME280;7922;43.622;1.476;2023-02-10T00:26:05;101984.84;;;-0.79;89.17
15646;BME280;7922;43.622;1.476;2023-02-10T00:28:32;102057.84;;;-0.50;88.40
15646;BME280;7922;43.622;1.476;2023-02-10T00:30:58;102128.72;;;-0.11;88.71
15646;BME280;7922;43.622;1.476;2023-02-10T00:33:23;102032.94;;;-0.67;88.73
15646;BME280;7922;43.622;1.476;2023-02-10T00:35:49;102074.53;;;-0.45;88.77
15646;BME280;7922;43.622;1.476;2023-02-10T00:38:14;102091.03;;;-0.44;89.00
15646;BME280;7922;43.622;1.476;2023-02-10T00:40:39;101976.97;;;-1.04;89.58
15646;BME280;7922;43.622;1.476;2023-02-10T00:43:04;102088.31;;;-0.47;88.76
15646;BME280;7922;43.622;1.476;2023-02-10T00:45:30;102036.19;;;-0.73;88.66
15646;BME280;7922;43.622;1.476;2023-02-10T00:47:55;102173.72;;;0.11;89.03
15646;BME280;7922;43.622;1.476;2023-02-10T00:50:20;102159.78;;;-0.15;88.66
15646;BME280;7922;43.622;1.476;2023-02-10T00:52:45;102160.50;;;-0.19;88.85
15646;BME280;7922;43.622;1.476;2023-02-10T00:55:11;102148.84;;;-0.29;88.79
15646;BME280;7922;43.622;1.476;2023-02-10T00:57:36;102183.44;;;-0.09;88.96
15646;BME280;7922;43.622;1.476;2023-02-10T01:00:01;102154.97;;;-0.29;88.87
15646;BME280;7922;43.622;1.476;2023-02-10T01:02:27;102125.59;;;-0.49;88.53
15646;BME280;7922;43.622;1.476;2023-02-10T01:04:52;102161.22;;;-0.23;88.71
15646;BME280;7922;43.622;1.476;2023-02-10T01:07:17;102127.19;;;-0.52;88.62
15646;BME280;7922;43.622;1.476;2023-02-10T01:09:43;102160.53;;;-0.42;89.03
15646;BME280;7922;43.622;1.476;2023-02-10T01:12:08;102039.38;;;-1.04;89.42
15646;BME280;7922;43.622;1.476;2023-02-10T01:14:33;102026.00;;;-1.13;89.17
15646;BME280;7922;43.622;1.476;2023-02-10T01:16:59;102147.69;;;-0.37;88.94
15646;BME280;7922;43.622;1.476;2023-02-10T01:19:24;102027.81;;;-1.12;89.31
15646;BME280;7922;43.622;1.476;2023-02-10T01:21:49;102145.47;;;-0.51;89.37
15646;BME280;7922;43.622;1.476;2023-02-10T01:24:14;101915.00;;;-1.85;89.32
15646;BME280;7922;43.622;1.476;2023-02-10T01:26:40;102157.53;;;-0.53;89.32
15646;BME280;7922;43.622;1.476;2023-02-10T01:29:05;102049.69;;;-1.06;88.93
15646;BME280;7922;43.622;1.476;2023-02-10T01:31:30;102165.63;;;-0.45;89.54
15646;BME280;7922;43.622;1.476;2023-02-10T01:33:56;102055.28;;;-1.19;89.54
15646;BME280;7922;43.622;1.476;2023-02-10T01:36:23;102062.97;;;-1.22;90.16
15646;BME280;7922;43.622;1.476;2023-02-10T01:38:49;102212.78;;;-0.37;90.42
15646;BME280;7922;43.622;1.476;2023-02-10T01:41:17;102167.28;;;-0.69;89.56
15646;BME280;7922;43.622;1.476;2023-02-10T01:43:58;102166.28;;;-0.73;90.15
15646;BME280;7922;43.622;1.476;2023-02-10T01:46:24;102214.94;;;-0.50;89.96
15646;BME280;7922;43.622;1.476;2023-02-10T01:48:51;102163.94;;;-0.89;90.55
15646;BME280;7922;43.622;1.476;2023-02-10T01:51:19;102206.81;;;-0.57;89.64
15646;BME280;7922;43.622;1.476;2023-02-10T01:53:47;102166.78;;;-0.83;90.11
15646;BME280;7922;43.622;1.476;2023-02-10T01:56:15;102149.66;;;-0.99;90.22
15646;BME280;7922;43.622;1.476;2023-02-10T01:58:41;102077.97;;;-1.37;89.78
15646;BME280;7922;43.622;1.476;2023-02-10T02:01:07;102184.59;;;-0.71;89.50
15646;BME280;7922;43.622;1.476;2023-02-10T02:03:33;102005.41;;;-1.75;89.63
15646;BME280;7922;43.622;1.476;2023-02-10T02:05:58;101970.47;;;-2.04;89.97
15646;BME280;7922;43.622;1.476;2023-02-10T02:08:30;102160.94;;;-0.99;90.04
15646;BME280;7922;43.622;1.476;2023-02-10T02:17:05;102231.59;;;-0.67;90.54
15646;BME280;7922;43.622;1.476;2023-02-10T02:22:22;102207.72;;;-0.57;90.10
15646;BME280;7922;43.622;1.476;2023-02-10T02:30:21;102065.09;;;-1.34;89.93
15646;BME280;7922;43.622;1.476;2023-02-10T02:33:21;102198.91;;;-0.60;89.38
15646;BME280;7922;43.622;1.476;2023-02-10T02:35:47;102201.97;;;-0.70;90.47
15646;BME280;7922;43.622;1.476;2023-02-10T02:38:15;102206.16;;;-0.74;90.14
15646;BME280;7922;43.622;1.476;2023-02-10T02:40:40;102117.06;;;-1.34;89.58
15646;BME280;7922;43.622;1.476;2023-02-10T02:43:06;102155.81;;;-1.19;90.60
15646;BME280;7922;43.622;1.476;2023-02-10T02:45:58;102197.44;;;-0.97;90.37
15646;BME280;7922;43.622;1.476;2023-02-10T02:48:48;102198.69;;;-0.87;90.00
15646;BME280;7922;43.622;1.476;2023-02-10T02:51:29;102204.97;;;-0.82;90.76
15646;BME280;7922;43.622;1.476;2023-02-10T02:54:13;102198.94;;;-0.81;90.47
15646;BME280;7922;43.622;1.476;2023-02-10T03:01:36;102036.53;;;-1.76;88.80
15646;BME280;7922;43.622;1.476;2023-02-10T03:04:04;102073.53;;;-1.82;89.44
15646;BME280;7922;43.622;1.476;2023-02-10T03:06:29;102006.03;;;-2.03;89.72
15646;BME280;7922;43.622;1.476;2023-02-10T03:08:54;102071.63;;;-1.65;89.09
15646;BME280;7922;43.622;1.476;2023-02-10T03:11:20;102169.03;;;-1.13;89.16
15646;BME280;7922;43.622;1.476;2023-02-10T03:13:45;102161.19;;;-1.15;88.82
15646;BME280;7922;43.622;1.476;2023-02-10T03:16:10;102156.13;;;-1.33;88.64
15646;BME280;7922;43.622;1.476;2023-02-10T03:18:36;102152.56;;;-1.35;89.26
15646;BME280;7922;43.622;1.476;2023-02-10T03:21:01;102156.69;;;-1.40;90.21
15646;BME280;7922;43.622;1.476;2023-02-10T03:23:26;102132.81;;;-1.52;89.86
15646;BME280;7922;43.622;1.476;2023-02-10T03:25:51;102188.06;;;-1.35;89.50
15646;BME280;7922;43.622;1.476;2023-02-10T03:28:17;102160.75;;;-1.47;88.86
15646;BME280;7922;43.622;1.476;2023-02-10T03:30:42;102142.41;;;-1.50;88.68
15646;BME280;7922;43.622;1.476;2023-02-10T03:33:08;102153.50;;;-1.54;88.51
15646;BME280;7922;43.622;1.476;2023-02-10T03:35:36;102178.19;;;-1.44;88.89
15646;BME280;7922;43.622;1.476;2023-02-10T03:38:01;102066.75;;;-1.99;89.33
15646;BME280;7922;43.622;1.476;2023-02-10T03:40:27;102175.72;;;-1.41;88.77
15646;BME280;7922;43.622;1.476;2023-02-10T03:42:52;102108.38;;;-1.77;88.32
15646;BME280;7922;43.622;1.476;2023-02-10T03:45:17;102163.28;;;-1.48;88.28
15646;BME280;7922;43.622;1.476;2023-02-10T03:47:42;102051.16;;;-2.20;88.10
15646;BME280;7922;43.622;1.476;2023-02-10T03:50:08;102054.78;;;-2.16;88.75
15646;BME280;7922;43.622;1.476;2023-02-10T03:52:33;101991.94;;;-2.69;88.98
15646;BME280;7922;43.622;1.476;2023-02-10T03:54:58;101981.00;;;-2.62;88.76
15646;BME280;7922;43.622;1.476;2023-02-10T03:57:23;102144.81;;;-1.75;88.18
15646;BME280;7922;43.622;1.476;2023-02-10T03:59:49;102145.63;;;-1.76;88.61
15646;BME280;7922;43.622;1.476;2023-02-10T04:02:14;102226.88;;;-1.40;89.01
15646;BME280;7922;43.622;1.476;2023-02-10T04:04:39;102162.19;;;-1.74;88.90
15646;BME280;7922;43.622;1.476;2023-02-10T04:07:04;102216.84;;;-1.52;89.73
15646;BME280;7922;43.622;1.476;2023-02-10T04:09:30;102167.69;;;-1.87;88.91
15646;BME280;7922;43.622;1.476;2023-02-10T04:11:55;102165.28;;;-1.83;88.86
15646;BME280;7922;43.622;1.476;2023-02-10T04:14:20;102183.59;;;-1.80;89.18
15646;BME280;7922;43.622;1.476;2023-02-10T04:16:46;102179.22;;;-1.81;89.25
15646;BME280;7922;43.622;1.476;2023-02-10T04:19:11;102176.50;;;-1.84;88.38
15646;BME280;7922;43.622;1.476;2023-02-10T04:21:36;102156.31;;;-1.89;88.79
15646;BME280;7922;43.622;1.476;2023-02-10T04:24:01;102160.97;;;-1.82;88.44
15646;BME280;7922;43.622;1.476;2023-02-10T04:26:27;102187.72;;;-1.85;87.95
15646;BME280;7922;43.622;1.476;2023-02-10T04:28:52;102016.59;;;-2.79;87.70
15646;BME280;7922;43.622;1.476;2023-02-10T04:31:18;102235.50;;;-1.60;88.26
15646;BME280;7922;43.622;1.476;2023-02-10T04:33:43;102164.09;;;-2.10;88.14
15646;BME280;7922;43.622;1.476;2023-02-10T04:36:08;102141.28;;;-2.17;88.51
15646;BME280;7922;43.622;1.476;2023-02-10T04:38:34;102080.06;;;-2.51;88.22
15646;BME280;7922;43.622;1.476;2023-02-10T04:41:00;102074.28;;;-2.65;88.24
15646;BME280;7922;43.622;1.476;2023-02-10T04:43:25;102242.50;;;-1.79;89.20
15646;BME280;7922;43.622;1.476;2023-02-10T04:45:50;102212.53;;;-1.91;89.58
15646;BME280;7922;43.622;1.476;2023-02-10T04:48:16;102210.13;;;-2.06;90.14
15646;BME280;7922;43.622;1.476;2023-02-10T04:50:41;102164.16;;;-2.28;89.94
15646;BME280;7922;43.622;1.476;2023-02-10T04:53:07;102225.66;;;-1.88;88.90
15646;BME280;7922;43.622;1.476;2023-02-10T04:55:33;101996.31;;;-3.26;89.31
15646;BME280;7922;43.622;1.476;2023-02-10T04:57:59;102139.69;;;-2.33;89.25
15646;BME280;7922;43.622;1.476;2023-02-10T05:00:24;102140.16;;;-2.23;88.98
15646;BME280;7922;43.622;1.476;2023-02-10T05:02:49;102161.53;;;-2.09;89.61
15646;BME280;7922;43.622;1.476;2023-02-10T05:05:15;102025.72;;;-2.87;89.20
15646;BME280;7922;43.622;1.476;2023-02-10T05:07:40;102177.06;;;-2.10;89.67
15646;BME280;7922;43.622;1.476;2023-02-10T05:10:06;102157.44;;;-2.23;88.91
15646;BME280;7922;43.622;1.476;2023-02-10T05:12:31;102128.75;;;-2.46;88.56
15646;BME280;7922;43.622;1.476;2023-02-10T05:14:56;102091.13;;;-2.75;88.69
15646;BME280;7922;43.622;1.476;2023-02-10T05:17:21;102212.25;;;-2.17;88.95
15646;BME280;7922;43.622;1.476;2023-02-10T05:19:47;102192.75;;;-2.27;89.94
15646;BME280;7922;43.622;1.476;2023-02-10T05:22:12;102237.03;;;-2.04;90.50
15646;BME280;7922;43.622;1.476;2023-02-10T05:24:37;102033.81;;;-3.18;89.79
15646;BME280;7922;43.622;1.476;2023-02-10T05:27:03;102229.00;;;-2.10;90.23
15646;BME280;7922;43.622;1.476;2023-02-10T05:29:28;102117.75;;;-2.79;89.57
15646;BME280;7922;43.622;1.476;2023-02-10T05:31:54;102162.53;;;-2.63;89.74
15646;BME280;7922;43.622;1.476;2023-02-10T05:34:19;102187.41;;;-2.49;89.94
15646;BME280;7922;43.622;1.476;2023-02-10T05:36:44;102065.22;;;-3.12;89.98
15646;BME280;7922;43.622;1.476;2023-02-10T05:39:10;102251.81;;;-2.03;89.70
15646;BME280;7922;43.622;1.476;2023-02-10T05:41:36;102053.88;;;-3.14;89.88
15646;BME280;7922;43.622;1.476;2023-02-10T05:44:01;102058.75;;;-3.20;89.91
15646;BME280;7922;43.622;1.476;2023-02-10T05:46:26;102210.22;;;-2.42;90.05
15646;BME280;7922;43.622;1.476;2023-02-10T05:48:52;102211.34;;;-2.55;90.10
15646;BME280;7922;43.622;1.476;2023-02-10T05:51:17;102053.53;;;-3.40;90.19
15646;BME280;7922;43.622;1.476;2023-02-10T05:53:42;102251.44;;;-2.30;90.97
15646;BME280;7922;43.622;1.476;2023-02-10T05:56:08;102240.25;;;-2.47;91.12
15646;BME280;7922;43.622;1.476;2023-02-10T05:58:33;102114.81;;;-3.04;90.60
15646;BME280;7922;43.622;1.476;2023-02-10T06:00:59;102174.03;;;-2.76;91.02
15646;BME280;7922;43.622;1.476;2023-02-10T06:03:24;102207.72;;;-2.58;90.52
15646;BME280;7922;43.622;1.476;2023-02-10T06:05:50;102235.00;;;-2.49;90.68
15646;BME280;7922;43.622;1.476;2023-02-10T06:08:15;102241.81;;;-2.51;90.86
15646;BME280;7922;43.622;1.476;2023-02-10T06:10:40;102253.47;;;-2.43;90.70
15646;BME280;7922;43.622;1.476;2023-02-10T06:13:06;102110.59;;;-3.20;90.75
15646;BME280;7922;43.622;1.476;2023-02-10T06:15:31;102228.03;;;-2.50;91.41
15646;BME280;7922;43.622;1.476;2023-02-10T06:17:56;102241.91;;;-2.49;90.65
15646;BME280;7922;43.622;1.476;2023-02-10T06:20:21;102194.13;;;-2.72;90.86
15646;BME280;7922;43.622;1.476;2023-02-10T06:22:47;102248.63;;;-2.35;90.57
15646;BME280;7922;43.622;1.476;2023-02-10T06:25:12;102119.50;;;-3.15;91.14
15646;BME280;7922;43.622;1.476;2023-02-10T06:27:37;102257.44;;;-2.31;91.49
15646;BME280;7922;43.622;1.476;2023-02-10T06:30:03;102069.09;;;-3.40;91.05
15646;BME280;7922;43.622;1.476;2023-02-10T06:32:28;102293.06;;;-2.09;90.44
15646;BME280;7922;43.622;1.476;2023-02-10T06:34:53;102106.19;;;-3.23;90.72
15646;BME280;7922;43.622;1.476;2023-02-10T06:37:19;102251.44;;;-2.48;90.88
15646;BME280;7922;43.622;1.476;2023-02-10T06:39:44;102067.47;;;-3.55;90.77
15646;BME280;7922;43.622;1.476;2023-02-10T06:42:09;102184.34;;;-2.96;90.85
15646;BME280;7922;43.622;1.476;2023-02-10T06:44:34;102269.47;;;-2.51;90.67
15646;BME280;7922;43.622;1.476;2023-02-10T06:47:00;102285.53;;;-2.40;90.82
15646;BME280;7922;43.622;1.476;2023-02-10T06:49:25;102169.53;;;-2.98;91.13
15646;BME280;7922;43.622;1.476;2023-02-10T06:51:50;102249.03;;;-2.63;90.57
15646;BME280;7922;43.622;1.476;2023-02-10T06:54:15;102289.03;;;-2.40;91.21
15646;BME280;7922;43.622;1.476;2023-02-10T06:56:41;102305.03;;;-2.31;91.50
15646;BME280;7922;43.622;1.476;2023-02-10T06:59:06;102277.19;;;-2.53;91.19
15646;BME280;7922;43.622;1.476;2023-02-10T07:01:31;102309.34;;;-2.31;91.11
15646;BME280;7922;43.622;1.476;2023-02-10T07:03:56;102232.13;;;-2.73;90.58
15646;BME280;7922;43.622;1.476;2023-02-10T07:06:21;102237.81;;;-2.62;90.80
15646;BME280;7922;43.622;1.476;2023-02-10T07:08:47;102245.84;;;-2.57;90.77
15646;BME280;7922;43.622;1.476;2023-02-10T07:11:12;102219.09;;;-2.74;90.30
15646;BME280;7922;43.622;1.476;2023-02-10T07:13:37;102240.91;;;-2.51;90.48
15646;BME280;7922;43.622;1.476;2023-02-10T07:16:03;102088.41;;;-3.33;90.36
15646;BME280;7922;43.622;1.476;2023-02-10T07:18:28;102183.25;;;-2.83;90.11
15646;BME280;7922;43.622;1.476;2023-02-10T07:20:53;102283.66;;;-2.25;89.25
15646;BME280;7922;43.622;1.476;2023-02-10T07:23:18;102301.41;;;-2.16;89.86
15646;BME280;7922;43.622;1.476;2023-02-10T07:25:44;102226.47;;;-2.46;89.94
15646;BME280;7922;43.622;1.476;2023-02-10T07:28:09;102122.66;;;-3.03;89.62
15646;BME280;7922;43.622;1.476;2023-02-10T07:30:34;102193.97;;;-2.57;89.37
15646;BME280;7922;43.622;1.476;2023-02-10T07:32:59;102290.97;;;-1.99;88.70
15646;BME280;7922;43.622;1.476;2023-02-10T07:35:25;102257.47;;;-2.12;88.79
15646;BME280;7922;43.622;1.476;2023-02-10T07:37:50;102228.34;;;-2.24;88.55
15646;BME280;7922;43.622;1.476;2023-02-10T07:40:15;102156.97;;;-2.53;89.03
15646;BME280;7922;43.622;1.476;2023-02-10T07:42:40;102302.97;;;-1.63;88.58
15646;BME280;7922;43.622;1.476;2023-02-10T07:45:06;102262.31;;;-1.61;87.59
15646;BME280;7922;43.622;1.476;2023-02-10T07:47:31;102234.56;;;-1.82;87.57
15646;BME280;7922;43.622;1.476;2023-02-10T07:49:57;102343.22;;;-1.15;87.46
15646;BME280;7922;43.622;1.476;2023-02-10T07:52:22;102192.75;;;-1.88;87.01
15646;BME280;7922;43.622;1.476;2023-02-10T07:54:48;102344.88;;;-0.96;87.15
15646;BME280;7922;43.622;1.476;2023-02-10T07:57:14;102293.06;;;-1.12;86.65
15646;BME280;7922;43.622;1.476;2023-02-10T07:59:40;102359.13;;;-0.67;86.61
15646;BME280;7922;43.622;1.476;2023-02-10T08:02:05;102260.25;;;-1.09;86.38
15646;BME280;7922;43.622;1.476;2023-02-10T08:04:32;102180.66;;;-1.47;86.56
15646;BME280;7922;43.622;1.476;2023-02-10T08:06:57;102259.31;;;-0.90;85.56
15646;BME280;7922;43.622;1.476;2023-02-10T08:09:22;102308.25;;;-0.59;85.59
15646;BME280;7922;43.622;1.476;2023-02-10T08:11:47;102313.75;;;-0.51;85.92
15646;BME280;7922;43.622;1.476;2023-02-10T08:14:13;102176.03;;;-1.12;85.84
15646;BME280;7922;43.622;1.476;2023-02-10T08:16:38;102320.09;;;-0.23;85.33
15646;BME280;7922;43.622;1.476;2023-02-10T08:19:03;102162.66;;;-0.99;85.68
15646;BME280;7922;43.622;1.476;2023-02-10T08:21:29;102309.25;;;-0.12;85.04
15646;BME280;7922;43.622;1.476;2023-02-10T08:23:54;102304.03;;;-0.12;85.14
15646;BME280;7922;43.622;1.476;2023-02-10T08:26:19;102266.22;;;-0.25;84.83
15646;BME280;7922;43.622;1.476;2023-02-10T08:28:44;102313.75;;;0.15;84.76
15646;BME280;7922;43.622;1.476;2023-02-10T08:31:10;102154.69;;;-0.59;84.38
15646;BME280;7922;43.622;1.476;2023-02-10T08:33:36;102299.72;;;0.35;83.99
15646;BME280;7922;43.622;1.476;2023-02-10T08:36:07;102253.09;;;0.19;84.26
15646;BME280;7922;43.622;1.476;2023-02-10T08:38:34;102181.13;;;-0.02;83.33
15646;BME280;7922;43.622;1.476;2023-02-10T08:40:59;102200.13;;;0.20;83.21
15646;BME280;7922;43.622;1.476;2023-02-10T08:43:25;102308.31;;;0.81;83.67
15646;BME280;7922;43.622;1.476;2023-02-10T08:45:51;102219.44;;;0.51;83.49
15646;BME280;7922;43.622;1.476;2023-02-10T08:48:17;102286.09;;;0.92;83.32
15646;BME280;7922;43.622;1.476;2023-02-10T08:50:43;102292.69;;;1.08;83.65
15646;BME280;7922;43.622;1.476;2023-02-10T08:53:08;102200.84;;;0.65;83.11
15646;BME280;7922;43.622;1.476;2023-02-10T08:55:34;102331.81;;;1.59;82.97
15646;BME280;7922;43.622;1.476;2023-02-10T08:57:59;102321.97;;;1.50;82.45
15646;BME280;7922;43.622;1.476;2023-02-10T09:00:24;102195.66;;;0.92;82.31
15646;BME280;7922;43.622;1.476;2023-02-10T09:02:50;102319.88;;;1.67;82.37
15646;BME280;7922;43.622;1.476;2023-02-10T09:05:15;102308.88;;;1.77;82.44
15646;BME280;7922;43.622;1.476;2023-02-10T09:07:41;102262.34;;;1.65;81.61
15646;BME280;7922;43.622;1.476;2023-02-10T09:10:07;102169.81;;;1.27;81.56
15646;BME280;7922;43.622;1.476;2023-02-10T09:12:33;102247.97;;;1.78;81.35
15646;BME280;7922;43.622;1.476;2023-02-10T09:14:58;102173.69;;;1.41;81.11
15646;BME280;7922;43.622;1.476;2023-02-10T09:17:24;102195.94;;;1.57;81.03
15646;BME280;7922;43.622;1.476;2023-02-10T09:19:49;102257.56;;;2.09;80.83
15646;BME280;7922;43.622;1.476;2023-02-10T09:22:14;102287.16;;;2.38;80.40
15646;BME280;7922;43.622;1.476;2023-02-10T09:24:39;102344.38;;;2.89;80.14
15646;BME280;7922;43.622;1.476;2023-02-10T09:27:05;102286.88;;;2.59;79.95
15646;BME280;7922;43.622;1.476;2023-02-10T09:29:30;102186.81;;;2.35;79.54
15646;BME280;7922;43.622;1.476;2023-02-10T09:31:55;102299.28;;;3.00;78.86
15646;BME280;7922;43.622;1.476;2023-02-10T09:34:21;102322.09;;;3.38;78.87
15646;BME280;7922;43.622;1.476;2023-02-10T09:36:46;102182.16;;;2.56;78.44
15646;BME280;7922;43.622;1.476;2023-02-10T09:39:11;102286.75;;;3.23;78.15
15646;BME280;7922;43.622;1.476;2023-02-10T09:54:22;102299.16;;;4.04;75.02
15646;BME280;7922;43.622;1.476;2023-02-10T09:56:47;102327.38;;;4.16;74.54
15646;BME280;7922;43.622;1.476;2023-02-10T09:59:19;102364.75;;;4.46;74.84
15646;BME280;7922;43.622;1.476;2023-02-10T10:01:49;102175.91;;;3.61;74.89
15646;BME280;7922;43.622;1.476;2023-02-10T10:04:18;102305.97;;;4.37;73.68
15646;BME280;7922;43.622;1.476;2023-02-10T10:06:53;102223.91;;;4.00;72.74
15646;BME280;7922;43.622;1.476;2023-02-10T10:09:40;102297.38;;;4.44;73.75
15646;BME280;7922;43.622;1.476;2023-02-10T10:12:13;102308.97;;;4.55;72.62
15646;BME280;7922;43.622;1.476;2023-02-10T10:14:40;102305.69;;;4.68;72.76
15646;BME280;7922;43.622;1.476;2023-02-10T10:30:53;102281.56;;;5.41;69.14
15646;BME280;7922;43.622;1.476;2023-02-10T10:33:30;102341.16;;;5.93;68.60
15646;BME280;7922;43.622;1.476;2023-02-10T10:35:58;102248.16;;;5.30;68.14
15646;BME280;7922;43.622;1.476;2023-02-10T10:38:27;102290.88;;;5.75;68.03
15646;BME280;7922;43.622;1.476;2023-02-10T10:41:06;102306.00;;;5.90;67.28
15646;BME280;7922;43.622;1.476;2023-02-10T10:43:42;102328.69;;;5.83;68.01
15646;BME280;7922;43.622;1.476;2023-02-10T10:46:36;102286.94;;;5.47;67.88
15646;BME280;7922;43.622;1.476;2023-02-10T10:49:03;102278.44;;;5.66;67.08
15646;BME280;7922;43.622;1.476;2023-02-10T10:51:30;102159.53;;;5.20;67.02
15646;BME280;7922;43.622;1.476;2023-02-10T10:53:58;102325.06;;;6.36;66.08
15646;BME280;7922;43.622;1.476;2023-02-10T10:59:27;102322.00;;;6.73;64.53
15646;BME280;7922;43.622;1.476;2023-02-10T11:01:54;102201.66;;;5.92;63.41
15646;BME280;7922;43.622;1.476;2023-02-10T11:04:21;102313.88;;;6.54;63.45
15646;BME280;7922;43.622;1.476;2023-02-10T11:06:48;102313.97;;;6.61;63.36
15646;BME280;7922;43.622;1.476;2023-02-10T11:09:30;102270.84;;;6.50;62.40
15646;BME280;7922;43.622;1.476;2023-02-10T11:14:46;102176.75;;;6.34;62.32
15646;BME280;7922;43.622;1.476;2023-02-10T11:17:35;102306.44;;;6.99;61.04
15646;BME280;7922;43.622;1.476;2023-02-10T11:22:35;102149.66;;;6.44;60.81
15646;BME280;7922;43.622;1.476;2023-02-10T11:25:05;102171.75;;;6.63;60.50
15646;BME280;7922;43.622;1.476;2023-02-10T11:27:51;102146.25;;;6.56;57.72
15646;BME280;7922;43.622;1.476;2023-02-10T11:32:55;102119.06;;;6.60;57.09
15646;BME280;7922;43.622;1.476;2023-02-10T11:35:22;102205.63;;;7.25;57.90
15646;BME280;7922;43.622;1.476;2023-02-10T11:37:56;102253.34;;;7.60;56.75
15646;BME280;7922;43.622;1.476;2023-02-10T11:40:47;102248.03;;;7.56;54.78
15646;BME280;7922;43.622;1.476;2023-02-10T11:43:14;102235.63;;;7.44;54.20
15646;BME280;7922;43.622;1.476;2023-02-10T11:45:54;102234.81;;;7.51;54.81
15646;BME280;7922;43.622;1.476;2023-02-10T11:48:22;102159.97;;;7.32;54.13
15646;BME280;7922;43.622;1.476;2023-02-10T11:50:48;102147.75;;;7.46;53.44
15646;BME280;7922;43.622;1.476;2023-02-10T11:53:27;102261.59;;;8.29;53.86
15646;BME280;7922;43.622;1.476;2023-02-10T12:01:15;102264.25;;;8.29;51.80
15646;BME280;7922;43.622;1.476;2023-02-10T12:06:32;102066.91;;;7.41;52.33
15646;BME280;7922;43.622;1.476;2023-02-10T12:17:02;102232.56;;;8.37;51.89
15646;BME280;7922;43.622;1.476;2023-02-10T12:19:47;102230.91;;;8.50;51.50
15646;BME280;7922;43.622;1.476;2023-02-10T12:22:26;102224.75;;;8.64;50.96
15646;BME280;7922;43.622;1.476;2023-02-10T12:27:37;102099.56;;;7.87;47.92
15646;BME280;7922;43.622;1.476;2023-02-10T12:35:25;102110.25;;;8.39;48.85
15646;BME280;7922;43.622;1.476;2023-02-10T12:40:37;102199.22;;;8.96;45.31
15646;BME280;7922;43.622;1.476;2023-02-10T12:43:13;102197.47;;;9.05;46.89
15646;BME280;7922;43.622;1.476;2023-02-10T12:45:57;102158.69;;;8.97;47.09
15646;BME280;7922;43.622;1.476;2023-02-10T12:51:32;102200.97;;;9.20;47.78
15646;BME280;7922;43.622;1.476;2023-02-10T12:54:00;102186.00;;;8.99;47.99
15646;BME280;7922;43.622;1.476;2023-02-10T12:56:35;102181.59;;;9.07;47.87
15646;BME280;7922;43.622;1.476;2023-02-10T12:59:09;102105.88;;;8.54;45.23
15646;BME280;7922;43.622;1.476;2023-02-10T13:01:40;102162.22;;;9.05;45.20
15646;BME280;7922;43.622;1.476;2023-02-10T13:04:24;102120.78;;;8.96;44.44
15646;BME280;7922;43.622;1.476;2023-02-10T13:09:43;102164.78;;;9.43;43.74
15646;BME280;7922;43.622;1.476;2023-02-10T13:15:00;102111.09;;;9.03;44.82
15646;BME280;7922;43.622;1.476;2023-02-10T13:17:36;101994.91;;;8.34;44.98
15646;BME280;7922;43.622;1.476;2023-02-10T13:22:50;102016.03;;;8.49;45.28
15646;BME280;7922;43.622;1.476;2023-02-10T13:25:49;102155.97;;;9.39;44.21
15646;BME280;7922;43.622;1.476;2023-02-10T13:28:28;102116.34;;;9.18;44.32
15646;BME280;7922;43.622;1.476;2023-02-10T13:31:19;102038.00;;;8.82;44.87
15646;BME280;7922;43.622;1.476;2023-02-10T13:34:15;102152.44;;;9.42;44.69
15646;BME280;7922;43.622;1.476;2023-02-10T13:36:44;102019.50;;;8.91;45.11
15646;BME280;7922;43.622;1.476;2023-02-10T13:39:19;102061.75;;;9.03;45.05
15646;BME280;7922;43.622;1.476;2023-02-10T13:41:47;102069.66;;;9.12;45.51
15646;BME280;7922;43.622;1.476;2023-02-10T13:44:30;102088.16;;;9.17;44.82
15646;BME280;7922;43.622;1.476;2023-02-10T13:49:56;102064.34;;;9.23;45.81
15646;BME280;7922;43.622;1.476;2023-02-10T13:52:23;102075.81;;;9.18;45.36
15646;BME280;7922;43.622;1.476;2023-02-10T13:54:59;101968.47;;;8.67;45.07
15646;BME280;7922;43.622;1.476;2023-02-10T13:57:34;102104.72;;;9.65;45.05
15646;BME280;7922;43.622;1.476;2023-02-10T14:02:34;101965.75;;;8.86;45.45
15646;BME280;7922;43.622;1.476;2023-02-10T14:05:00;102069.56;;;9.40;44.78
15646;BME280;7922;43.622;1.476;2023-02-10T14:13:26;102094.13;;;9.71;44.32
15646;BME280;7922;43.622;1.476;2023-02-10T14:15:59;102055.41;;;9.53;43.37
15646;BME280;7922;43.622;1.476;2023-02-10T14:18:28;102037.84;;;9.37;43.23
15646;BME280;7922;43.622;1.476;2023-02-10T14:21:00;102033.41;;;9.39;43.23
15646;BME280;7922;43.622;1.476;2023-02-10T14:23:26;102050.97;;;9.54;42.28
15646;BME280;7922;43.622;1.476;2023-02-10T14:25:57;102079.13;;;9.72;41.67
15646;BME280;7922;43.622;1.476;2023-02-10T14:28:28;102051.88;;;9.56;41.74
15646;BME280;7922;43.622;1.476;2023-02-10T14:30:56;101942.84;;;8.97;41.68
15646;BME280;7922;43.622;1.476;2023-02-10T14:33:28;101959.50;;;9.13;41.87
15646;BME280;7922;43.622;1.476;2023-02-10T14:36:00;101926.94;;;9.03;42.11
15646;BME280;7922;43.622;1.476;2023-02-10T14:38:31;102049.09;;;9.76;41.90
15646;BME280;7922;43.622;1.476;2023-02-10T14:40:58;102023.63;;;9.59;40.16
15646;BME280;7922;43.622;1.476;2023-02-10T14:43:26;102074.59;;;9.91;39.78
15646;BME280;7922;43.622;1.476;2023-02-10T14:45:53;101864.56;;;8.65;39.14
15646;BME280;7922;43.622;1.476;2023-02-10T14:48:20;102042.13;;;9.61;38.10
15646;BME280;7922;43.622;1.476;2023-02-10T14:50:56;102062.31;;;9.79;39.09
15646;BME280;7922;43.622;1.476;2023-02-10T14:53:22;102012.25;;;9.45;39.43
15646;BME280;7922;43.622;1.476;2023-02-10T14:55:52;101917.31;;;8.91;39.72